CSF5 weather

Markerville/Safron Farms Airport
Markerville, Ontario, Canada

Public forecast

Using degrees Celsius for public forecast. Weather courtesy of forecast.io.

METAR (pilot weather report)

Closest report is Red Deer Regional Airport, 12.7 nm (23.5 km) E. Retrieved 2019/09/23 12:00 UTC (42 minutes ago):

CYQF 231200Z 27005KT 15SM BKN130 07/06 A2973 RMK AC6 SLP078 DENSITY ALT 3000FT

TAF (pilot weather forecast)

Closest forecast is Red Deer Regional Airport, 12.7 nm (23.5 km) E. Retrieved 2019/09/23 12:42 UTC (1 second ago):

TAF CYQF 231139Z 2312/2324 VRB03KT P6SM BKN100 BECMG 2312/2314 FEW100 FM232000 25010KT P6SM BKN070 RMK NXT FCST BY 231800Z